Ruy Barbosa, Brazil
Current Conditions -  °F | °C
As of 6:20 AM on Thursday 27 Nov 2014 (Local Time) from SBSG Reporting Station
Light Rain Light Rain  
Wind Chill: 73°   Ceiling: 6700
Heat Index: 73°   Visibility: 1.8mi
Dew Point: 72°   Wind: 5mph
Humidity: 94%   Direction: 180°S
Pressure: 29.91"   Gusts: NA
Location:  5.88°S, 35.93°W
Report Text: SBSG 270920Z 18004KT 140V210 3000 R12/1600U -RA BR SCT013 SCT015 OVC067 23/22 Q1013
Loading
Personal Weather Stations






























Interactive Weather Map New forecast layout! Learn more

10-Day Weather Forecast

Advertisements
Track Severe Weather on mobile